Time;durP1;ratioP1;P1;durP2;ratioP2;P2;SDS_P1;SDS_P2;PMS_P1;PMS_P2;Temp;Humidity;BMP_temperature;BMP_pressure;BME280_temperature;BME280_humidity;BME280_pressure;Samples;Min_cycle;Max_cycle;Signal;HPM_P1;HPM_P2
2023/04/12 00:00:56;;;;;;;7.22;3.90;;;;;;;7.79;92.56;100580.03;6102511;19;20013;-73
2023/04/12 00:03:02;;;;;;;7.72;4.07;;;;;;;7.77;92.63;100550.50;6099743;19;20082;-73
2023/04/12 00:05:08;;;;;;;11.10;4.50;;;;;;;7.73;93.33;100546.25;6101334;19;20021;-73
2023/04/12 00:07:13;;;;;;;9.70;4.63;;;;;;;7.73;93.24;100538.41;6103768;19;20014;-72
2023/04/12 00:09:18;;;;;;;9.93;4.60;;;;;;;7.74;93.33;100534.03;6098803;19;20042;-72
2023/04/12 00:11:26;;;;;;;12.75;4.65;;;;;;;7.75;93.10;100535.75;6099658;19;20509;-73
2023/04/12 00:13:31;;;;;;;12.27;4.82;;;;;;;7.77;93.16;100528.72;6101071;19;20015;-73
2023/04/12 00:15:39;;;;;;;8.95;4.30;;;;;;;7.75;93.28;100523.53;6100867;19;20011;-73
2023/04/12 00:17:46;;;;;;;10.55;4.50;;;;;;;7.75;93.50;100520.06;6096687;19;20721;-73
2023/04/12 00:19:57;;;;;;;11.70;4.90;;;;;;;7.79;93.31;100517.25;6101131;19;20403;-74
2023/04/12 00:22:05;;;;;;;8.82;3.92;;;;;;;7.76;93.26;100516.53;6094072;19;20010;-73
2023/04/12 00:24:11;;;;;;;13.23;4.07;;;;;;;7.79;92.86;100493.72;6100322;19;20015;-74
2023/04/12 00:26:16;;;;;;;9.80;5.00;;;;;;;7.79;93.09;100485.03;6098748;19;20074;-73
2023/04/12 00:28:21;;;;;;;9.98;4.93;;;;;;;7.77;93.31;100471.16;6098499;19;20026;-75
2023/04/12 00:30:27;;;;;;;12.57;4.80;;;;;;;7.79;93.30;100451.88;6100684;19;20034;-74
2023/04/12 00:32:35;;;;;;;10.45;4.75;;;;;;;7.83;92.79;100443.03;6098378;19;20011;-73
2023/04/12 00:34:41;;;;;;;12.48;5.03;;;;;;;7.83;93.34;100442.16;6098115;19;20019;-72
2023/04/12 00:36:46;;;;;;;11.32;4.57;;;;;;;7.75;93.48;100452.91;6098370;19;20019;-72
2023/04/12 00:38:51;;;;;;;10.15;4.65;;;;;;;7.71;93.56;100435.59;6099467;19;20006;-71
2023/04/12 00:40:56;;;;;;;10.30;5.00;;;;;;;7.72;93.14;100437.31;6096966;19;20363;-70
2023/04/12 00:43:03;;;;;;;14.35;5.25;;;;;;;7.71;93.41;100446.06;6103719;19;20073;-71
2023/04/12 00:45:09;;;;;;;12.82;5.75;;;;;;;7.69;93.55;100432.19;6099725;19;20006;-71
2023/04/12 00:47:14;;;;;;;12.02;5.22;;;;;;;7.69;94.22;100412.13;6097760;19;20007;-70
2023/04/12 00:49:22;;;;;;;7.50;3.97;;;;;;;7.70;93.83;100412.97;6099129;19;20014;-70
2023/04/12 00:51:32;;;;;;;8.43;3.90;;;;;;;7.74;93.54;100405.88;6101218;19;20006;-71
2023/04/12 00:53:37;;;;;;;11.57;4.65;;;;;;;7.73;93.80;100391.09;6095888;19;20014;-72
2023/04/12 00:55:45;;;;;;;16.45;4.90;;;;;;;7.73;93.31;100397.16;6099383;19;20074;-73
2023/04/12 00:57:53;;;;;;;10.50;4.50;;;;;;;7.70;93.43;100395.50;6095300;19;20067;-73
2023/04/12 00:59:58;;;;;;;12.90;4.90;;;;;;;7.68;93.27;100378.16;6097167;19;20011;-73
2023/04/12 01:02:04;;;;;;;10.75;4.97;;;;;;;7.69;93.45;100374.66;6094230;19;20007;-74
2023/04/12 01:04:12;;;;;;;10.95;4.60;;;;;;;7.63;94.32;100351.34;6096167;19;20087;-73
2023/04/12 01:06:32;;;;;;;10.25;4.80;;;;;;;7.65;93.36;100350.38;6096205;19;20039;-74
2023/04/12 01:08:45;;;;;;;7.53;3.97;;;;;;;7.66;93.21;100353.81;6087419;19;20015;-71
2023/04/12 01:10:54;;;;;;;;;;;;;;;7.68;93.39;100352.03;6099846;19;20316;-70
2023/04/12 01:13:13;;;;;;;10.75;4.13;;;;;;;7.70;93.39;100342.38;6099882;19;20619;-70
2023/04/12 01:15:23;;;;;;;11.43;4.40;;;;;;;7.67;92.93;100340.72;6098773;19;20006;-70
2023/04/12 01:17:36;;;;;;;9.07;3.70;;;;;;;7.74;92.61;100330.00;6098427;19;20402;-73
2023/04/12 01:19:57;;;;;;;11.95;4.10;;;;;;;7.71;92.36;100320.53;6098951;19;20319;-72
2023/04/12 01:22:18;;;;;;;10.40;4.47;;;;;;;7.68;92.73;100320.63;6099008;19;20082;-72
2023/04/12 01:24:36;;;;;;;8.40;3.47;;;;;;;7.66;93.10;100315.47;6099039;19;20010;-71
2023/04/12 01:26:45;;;;;;;8.60;3.45;;;;;;;7.66;93.21;100305.03;6092158;19;20404;-71
2023/04/12 01:28:57;;;;;;;10.57;3.70;;;;;;;7.65;92.52;100290.22;6090792;19;20035;-71
2023/04/12 01:31:04;;;;;;;7.97;3.75;;;;;;;7.64;92.63;100295.53;6097073;19;20032;-72
2023/04/12 01:33:13;;;;;;;7.70;3.17;;;;;;;7.65;92.86;100292.84;6101154;19;20475;-72
2023/04/12 01:35:23;;;;;;;8.02;3.55;;;;;;;7.63;92.80;100280.72;6105197;19;20035;-72
2023/04/12 01:37:29;;;;;;;12.00;5.80;;;;;;;7.64;93.39;100266.75;6105819;19;20010;-71
2023/04/12 01:39:35;;;;;;;8.07;3.42;;;;;;;7.61;93.18;100246.81;6098523;19;20602;-73
2023/04/12 01:41:47;;;;;;;12.32;4.13;;;;;;;7.64;93.07;100245.84;6105279;19;20022;-72
2023/04/12 01:43:56;;;;;;;9.50;3.77;;;;;;;7.59;93.58;100235.56;6103875;19;20556;-73
2023/04/12 01:46:02;;;;;;;10.68;3.33;;;;;;;7.59;93.08;100239.94;6103030;19;20259;-72
2023/04/12 01:48:09;;;;;;;10.63;4.18;;;;;;;7.57;93.56;100232.13;6103317;19;20042;-73
2023/04/12 01:50:23;;;;;;;9.98;3.60;;;;;;;7.57;93.64;100228.66;6101461;19;20006;-71
2023/04/12 01:52:33;;;;;;;12.40;3.67;;;;;;;7.57;93.52;100215.59;6102681;19;20114;-72
2023/04/12 01:54:40;;;;;;;9.32;4.13;;;;;;;7.59;93.40;100225.09;6101194;19;20007;-72
2023/04/12 01:56:48;;;;;;;5.93;3.60;;;;;;;7.56;94.12;100211.28;6106477;19;20094;-71
2023/04/12 01:58:58;;;;;;;7.30;3.58;;;;;;;7.60;93.10;100212.84;6100453;19;20431;-71
2023/04/12 02:01:04;;;;;;;4.88;2.75;;;;;;;7.61;93.00;100198.88;6106765;19;20014;-72
2023/04/12 02:03:10;;;;;;;6.53;2.92;;;;;;;7.61;93.49;100204.97;6098256;19;20014;-73
2023/04/12 02:05:17;;;;;;;8.15;3.63;;;;;;;7.56;93.93;100199.06;6102464;19;20038;-73
2023/04/12 02:07:23;;;;;;;9.55;3.40;;;;;;;7.52;93.94;100194.84;6104871;19;20028;-72
2023/04/12 02:09:28;;;;;;;8.27;3.70;;;;;;;7.51;94.00;100187.09;6102523;19;20478;-72
2023/04/12 02:11:34;;;;;;;5.63;2.80;;;;;;;7.52;94.35;100179.16;6100522;19;20009;-73
2023/04/12 02:13:39;;;;;;;7.68;3.70;;;;;;;7.51;94.05;100166.16;6102890;19;20034;-72
2023/04/12 02:15:47;;;;;;;6.45;3.22;;;;;;;7.48;94.18;100164.53;6100290;19;20023;-71
2023/04/12 02:17:53;;;;;;;9.77;3.33;;;;;;;7.51;94.23;100161.78;6103175;19;20018;-72
2023/04/12 02:19:58;;;;;;;6.90;3.28;;;;;;;7.50;94.24;100172.28;6103916;19;20378;-72
2023/04/12 02:22:04;;;;;;;8.43;3.40;;;;;;;7.48;94.48;100167.97;6105048;19;20041;-71
2023/04/12 02:24:10;;;;;;;9.43;3.78;;;;;;;7.46;94.79;100167.19;6102203;19;20022;-72
2023/04/12 02:26:15;;;;;;;7.03;3.58;;;;;;;7.48;95.21;100152.31;6101271;19;20088;-72
2023/04/12 02:28:24;;;;;;;7.30;3.60;;;;;;;7.45;95.49;100138.47;6099229;19;20011;-71
2023/04/12 02:30:29;;;;;;;8.75;3.55;;;;;;;7.47;94.77;100132.28;6099477;19;20007;-72
2023/04/12 02:32:42;;;;;;;7.38;3.63;;;;;;;7.46;95.07;100122.75;6101956;19;19998;-70
2023/04/12 02:34:50;;;;;;;6.72;3.67;;;;;;;7.43;95.32;100128.09;6098128;19;20038;-70
2023/04/12 02:36:57;;;;;;;10.15;3.33;;;;;;;7.48;95.33;100130.53;6104088;19;20014;-69
2023/04/12 02:39:06;;;;;;;11.10;3.92;;;;;;;7.48;95.58;100122.69;6099211;19;20031;-70
2023/04/12 02:41:19;;;;;;;7.40;3.42;;;;;;;7.52;95.74;100120.81;6101538;19;20469;-70
2023/04/12 02:43:24;;;;;;;8.52;3.72;;;;;;;7.47;95.80;100119.19;6099330;19;20097;-70
2023/04/12 02:45:30;;;;;;;8.95;4.07;;;;;;;7.47;95.82;100123.59;6099340;19;20007;-70
2023/04/12 02:47:39;;;;;;;8.77;4.25;;;;;;;7.50;95.92;100104.31;6098931;19;20007;-70
2023/04/12 02:49:45;;;;;;;9.38;4.55;;;;;;;7.54;95.80;100100.69;6103004;19;20014;-70
2023/04/12 02:51:51;;;;;;;9.98;4.10;;;;;;;7.52;95.94;100095.50;6101249;19;20062;-70
2023/04/12 02:53:59;;;;;;;10.93;4.13;;;;;;;7.54;95.53;100095.44;6099073;19;20496;-70
2023/04/12 02:56:05;;;;;;;13.07;4.38;;;;;;;7.53;95.87;100086.75;6106409;19;20448;-71
2023/04/12 02:58:11;;;;;;;9.35;4.47;;;;;;;7.52;96.02;100081.59;6103562;19;20012;-71
2023/04/12 03:00:20;;;;;;;10.40;4.43;;;;;;;7.52;95.88;100078.97;6103888;19;20467;-70
2023/04/12 03:02:25;;;;;;;11.60;4.07;;;;;;;7.53;96.04;100083.28;6102257;19;20019;-71
2023/04/12 03:04:36;;;;;;;9.13;4.35;;;;;;;7.55;96.09;100068.38;6100534;19;20002;-71
2023/04/12 03:06:51;;;;;;;9.02;4.32;;;;;;;7.57;96.05;100064.78;6099623;19;20011;-71
2023/04/12 03:08:56;;;;;;;11.43;4.60;;;;;;;7.52;96.54;100063.28;6103678;19;20038;-71
2023/04/12 03:11:01;;;;;;;13.88;5.80;;;;;;;7.53;96.38;100064.97;6102745;19;20467;-71
2023/04/12 03:13:06;;;;;;;10.82;4.35;;;;;;;7.57;95.96;100053.50;6104054;19;20015;-71
2023/04/12 03:15:12;;;;;;;9.77;5.07;;;;;;;7.58;96.07;100047.34;6102532;19;20105;-71
2023/04/12 03:17:17;;;;;;;11.00;5.00;;;;;;;7.57;96.16;100040.41;6103177;19;20026;-71
2023/04/12 03:19:23;;;;;;;9.93;4.88;;;;;;;7.57;95.87;100046.50;6102529;19;20015;-71
2023/04/12 03:21:32;;;;;;;7.95;4.20;;;;;;;7.58;95.69;100043.00;6100944;19;20010;-71
2023/04/12 03:23:37;;;;;;;14.48;4.93;;;;;;;7.60;95.93;100058.59;6103427;19;20006;-70
2023/04/12 03:25:45;;;;;;;7.72;4.13;;;;;;;7.60;95.55;100056.81;6100428;19;20011;-71
2023/04/12 03:27:52;;;;;;;10.05;4.05;;;;;;;7.60;95.64;100042.91;6095739;19;20028;-72
2023/04/12 03:29:58;;;;;;;8.40;4.72;;;;;;;7.60;95.39;100029.84;6100993;19;20007;-72
2023/04/12 03:32:03;;;;;;;10.50;4.63;;;;;;;7.61;95.99;100015.84;6098135;19;20038;-73
2023/04/12 03:34:09;;;;;;;8.55;4.40;;;;;;;7.65;95.34;100017.41;6095750;19;20015;-71
2023/04/12 03:36:14;;;;;;;7.63;3.88;;;;;;;7.63;95.55;100024.47;6098444;19;20012;-71
2023/04/12 03:38:22;;;;;;;9.07;3.88;;;;;;;7.63;95.68;100016.63;6097975;19;20015;-72
2023/04/12 03:40:29;;;;;;;8.90;3.75;;;;;;;7.63;95.99;100009.63;6098108;19;20256;-72
2023/04/12 03:42:38;;;;;;;9.52;4.72;;;;;;;7.62;95.72;100012.31;6096783;19;20441;-72
2023/04/12 03:44:43;;;;;;;8.60;4.63;;;;;;;7.63;95.90;100014.84;6087921;19;20015;-71
2023/04/12 03:46:53;;;;;;;8.88;3.88;;;;;;;7.66;95.69;100003.41;6093772;19;20006;-71
2023/04/12 03:48:59;;;;;;;8.65;4.05;;;;;;;7.65;95.74;99992.13;6098795;19;20042;-74
2023/04/12 03:51:06;;;;;;;8.85;3.80;;;;;;;7.64;95.77;99977.34;6099061;19;20038;-70
2023/04/12 03:53:11;;;;;;;9.07;4.00;;;;;;;7.66;95.57;99978.16;6098566;19;19999;-71
2023/04/12 03:55:19;;;;;;;8.18;4.18;;;;;;;7.65;95.72;99978.19;6096401;19;20013;-70
2023/04/12 03:57:25;;;;;;;7.20;4.30;;;;;;;7.67;95.73;99976.38;6099420;19;20014;-71
2023/04/12 03:59:33;;;;;;;12.25;4.75;;;;;;;7.71;95.76;99983.16;6101663;19;20011;-70
2023/04/12 04:01:40;;;;;;;8.02;3.85;;;;;;;7.73;96.01;99970.88;6102328;19;20302;-71
2023/04/12 04:03:47;;;;;;;7.15;3.75;;;;;;;7.68;96.12;99978.91;6100305;19;19999;-72
2023/04/12 04:05:52;;;;;;;9.40;4.55;;;;;;;7.72;96.11;99981.41;6096404;19;20564;-72
2023/04/12 04:08:01;;;;;;;8.93;4.45;;;;;;;7.73;96.08;99968.25;6096824;19;20041;-71
2023/04/12 04:10:07;;;;;;;8.65;4.00;;;;;;;7.79;95.82;99977.59;6098031;19;20010;-71
2023/04/12 04:12:15;;;;;;;10.48;4.30;;;;;;;7.83;95.84;99972.19;6092520;19;20010;-71
2023/04/12 04:14:23;;;;;;;10.25;4.55;;;;;;;7.79;96.18;99969.75;6096808;19;20414;-71
2023/04/12 04:16:28;;;;;;;12.15;4.50;;;;;;;7.83;95.65;99982.66;6099786;19;20018;-71
2023/04/12 04:18:34;;;;;;;13.50;4.80;;;;;;;7.85;95.24;99972.13;6100141;19;20754;-71
2023/04/12 04:20:42;;;;;;;12.38;4.43;;;;;;;7.83;95.94;99982.66;6091292;19;20047;-73
2023/04/12 04:22:48;;;;;;;10.57;5.35;;;;;;;7.81;96.17;99975.78;6099509;19;20398;-70
2023/04/12 04:24:54;;;;;;;12.10;4.97;;;;;;;7.84;95.93;99973.88;6099362;19;20374;-73
2023/04/12 04:27:00;;;;;;;10.45;4.70;;;;;;;7.87;96.26;99981.63;6099741;19;20007;-71
2023/04/12 04:29:08;;;;;;;11.02;5.10;;;;;;;7.87;96.17;99986.84;6097628;19;20022;-71
2023/04/12 04:31:16;;;;;;;10.70;4.53;;;;;;;7.86;96.15;99974.66;6099857;19;20510;-73
2023/04/12 04:33:26;;;;;;;9.90;5.00;;;;;;;7.83;96.46;99977.41;6099679;19;20742;-73
2023/04/12 04:35:31;;;;;;;11.68;5.28;;;;;;;7.83;96.88;99977.41;6097467;19;20455;-71
2023/04/12 04:37:36;;;;;;;11.07;5.25;;;;;;;7.83;96.96;99976.56;6100489;19;20939;-72
2023/04/12 04:39:42;;;;;;;10.10;5.22;;;;;;;7.85;96.96;99987.81;6103366;19;20129;-73
2023/04/12 04:41:53;;;;;;;14.68;6.32;;;;;;;7.83;97.02;99982.66;6101786;19;20018;-72
2023/04/12 04:43:59;;;;;;;13.27;6.30;;;;;;;7.86;96.91;99987.75;6100014;19;20343;-71
2023/04/12 04:46:10;;;;;;;11.88;6.32;;;;;;;7.90;96.91;99991.09;6099389;19;20045;-72
2023/04/12 04:48:17;;;;;;;16.50;7.20;;;;;;;7.89;96.79;99997.22;6100808;19;20011;-71
2023/04/12 04:50:23;;;;;;;15.65;7.47;;;;;;;7.93;96.98;99995.34;6100937;19;20546;-72
2023/04/12 04:52:29;;;;;;;16.63;8.75;;;;;;;7.94;97.07;99990.03;6102033;19;20003;-71
2023/04/12 04:54:34;;;;;;;14.93;7.57;;;;;;;7.97;97.23;99989.03;6101218;19;20006;-72
2023/04/12 04:56:40;;;;;;;14.60;7.28;;;;;;;7.99;97.11;99987.22;6099379;19;20486;-71
2023/04/12 04:58:45;;;;;;;16.00;7.60;;;;;;;8.00;97.09;99979.28;6096481;19;20011;-71
2023/04/12 05:00:54;;;;;;;17.83;7.93;;;;;;;8.02;97.15;99982.69;6099602;19;20024;-72
2023/04/12 05:03:03;;;;;;;17.30;7.72;;;;;;;8.07;97.00;99979.88;6099920;19;20011;-72
2023/04/12 05:05:11;;;;;;;17.15;7.80;;;;;;;8.07;97.56;99974.66;6095269;19;21021;-72
2023/04/12 05:07:16;;;;;;;16.92;7.10;;;;;;;8.16;97.15;99973.38;6095323;19;20494;-73
2023/04/12 05:09:22;;;;;;;16.30;6.90;;;;;;;8.18;96.86;99980.25;6099204;19;20026;-72
2023/04/12 05:11:29;;;;;;;15.45;7.38;;;;;;;8.21;96.76;99976.66;6102570;19;20359;-73
2023/04/12 05:13:34;;;;;;;16.48;6.75;;;;;;;8.29;96.02;99977.16;6097109;19;20006;-73
2023/04/12 05:15:44;;;;;;;17.00;6.28;;;;;;;8.32;95.58;99971.78;6100761;19;20527;-72
2023/04/12 05:17:54;;;;;;;17.40;6.80;;;;;;;8.35;95.67;99975.13;6097067;19;20054;-72
2023/04/12 05:20:07;;;;;;;13.32;6.05;;;;;;;8.40;95.58;99974.09;6095585;19;20769;-72
2023/04/12 05:22:13;;;;;;;14.73;5.63;;;;;;;8.39;95.18;99967.13;6095473;19;20088;-75
2023/04/12 05:24:18;;;;;;;18.75;5.90;;;;;;;8.41;94.67;99971.41;6097487;19;20010;-74
2023/04/12 05:26:23;;;;;;;17.73;6.05;;;;;;;8.36;94.85;99968.97;6097194;19;20015;-74
2023/04/12 05:28:29;;;;;;;15.30;5.80;;;;;;;8.35;94.99;99967.28;6098935;19;20010;-75
2023/04/12 05:30:34;;;;;;;18.25;6.22;;;;;;;8.41;94.45;99968.78;6099150;19;20077;-75
2023/04/12 05:32:41;;;;;;;15.70;5.60;;;;;;;8.39;94.40;99967.13;6094306;19;20011;-75
2023/04/12 05:34:46;;;;;;;16.65;5.03;;;;;;;8.40;94.40;99964.47;6097064;19;20011;-74
2023/04/12 05:36:55;;;;;;;12.38;4.43;;;;;;;8.36;94.37;99968.97;6096052;19;20444;-75
2023/04/12 05:39:00;;;;;;;18.30;5.20;;;;;;;8.38;94.63;99975.91;6098326;19;20015;-75
2023/04/12 05:41:06;;;;;;;16.05;4.47;;;;;;;8.39;94.62;99977.59;6096288;19;20034;-75
2023/04/12 05:43:11;;;;;;;17.58;5.32;;;;;;;8.38;94.57;99979.38;6097949;19;20006;-75
2023/04/12 05:45:17;;;;;;;12.10;5.10;;;;;;;8.39;94.34;99993.31;6098288;19;20049;-75
2023/04/12 05:47:25;;;;;;;14.82;3.95;;;;;;;8.40;94.91;99984.56;6098392;19;20363;-76
2023/04/12 05:49:31;;;;;;;12.70;4.07;;;;;;;8.39;94.76;99982.84;6099025;19;20003;-75
2023/04/12 05:51:36;;;;;;;15.15;4.72;;;;;;;8.39;94.65;99972.38;6100855;19;20400;-75
2023/04/12 05:53:47;;;;;;;21.10;4.65;;;;;;;8.39;94.38;99978.47;6093404;19;19998;-75
2023/04/12 05:55:53;;;;;;;23.52;5.07;;;;;;;8.39;94.16;99981.09;6096372;19;20471;-74
2023/04/12 05:58:00;;;;;;;13.88;4.55;;;;;;;8.40;94.40;99976.69;6099808;19;20349;-74
2023/04/12 06:00:12;;;;;;;20.00;4.45;;;;;;;8.39;94.49;99988.06;6101733;19;20506;-74
2023/04/12 06:02:18;;;;;;;23.17;4.82;;;;;;;8.36;94.42;99981.19;6100471;19;20021;-74
2023/04/12 06:04:24;;;;;;;16.85;3.90;;;;;;;8.35;94.23;99979.50;6098101;19;20014;-73
2023/04/12 06:06:52;;;;;;;13.80;4.63;;;;;;;8.36;94.02;99979.44;6092548;19;20399;-73
2023/04/12 06:09:03;;;;;;;15.65;4.07;;;;;;;8.42;94.08;99977.50;6097064;19;20031;-73
2023/04/12 06:11:10;;;;;;;14.55;4.38;;;;;;;8.44;93.84;99975.66;6096726;19;20483;-73
2023/04/12 06:13:15;;;;;;;14.07;3.42;;;;;;;8.48;93.83;99975.44;6097931;19;20033;-73
2023/04/12 06:15:22;;;;;;;16.33;3.42;;;;;;;8.44;94.10;99973.03;6097236;19;20487;-73
2023/04/12 06:17:32;;;;;;;17.33;3.72;;;;;;;8.51;93.57;99983.16;6096303;19;20009;-72
2023/04/12 06:19:37;;;;;;;21.27;4.45;;;;;;;8.49;93.13;99976.28;6102464;19;20346;-72
2023/04/12 06:21:42;;;;;;;18.60;4.15;;;;;;;8.46;93.25;99979.06;6102783;19;20009;-72
2023/04/12 06:23:48;;;;;;;15.75;3.97;;;;;;;8.43;92.86;99979.19;6104556;19;20010;-72
2023/04/12 06:25:56;;;;;;;10.30;2.75;;;;;;;8.40;93.10;99977.56;6104586;19;20014;-73
2023/04/12 06:28:01;;;;;;;16.92;4.70;;;;;;;8.46;92.16;99976.44;6100432;19;20002;-73
2023/04/12 06:30:08;;;;;;;19.30;4.55;;;;;;;8.42;92.32;99993.19;6104314;19;20038;-74
2023/04/12 06:32:14;;;;;;;21.30;4.95;;;;;;;8.35;92.37;99995.22;6104215;19;20030;-72
2023/04/12 06:34:19;;;;;;;24.38;4.00;;;;;;;8.36;92.08;99989.06;6103924;19;20036;-72
2023/04/12 06:36:24;;;;;;;15.88;4.93;;;;;;;8.36;92.42;99989.91;6104756;19;20029;-72
2023/04/12 06:38:30;;;;;;;21.00;3.60;;;;;;;8.39;92.18;99988.94;6103432;19;20002;-72
2023/04/12 06:40:35;;;;;;;13.63;3.67;;;;;;;8.45;92.30;99986.06;6103299;19;20006;-72
2023/04/12 06:42:42;;;;;;;13.07;3.05;;;;;;;8.52;91.84;99978.78;6101815;19;20130;-71
2023/04/12 06:44:48;;;;;;;9.38;3.10;;;;;;;8.54;91.95;99971.69;6102040;19;20018;-71
2023/04/12 06:46:53;;;;;;;12.00;3.75;;;;;;;8.63;91.74;99981.72;6099810;19;20989;-72
2023/04/12 06:48:59;;;;;;;21.98;4.45;;;;;;;8.67;91.47;99979.84;6099531;19;20041;-72
2023/04/12 06:51:04;;;;;;;18.10;4.45;;;;;;;8.73;91.33;99972.53;6102396;19;20015;-72
2023/04/12 06:53:09;;;;;;;25.63;4.07;;;;;;;8.81;91.80;99979.19;6102215;19;20011;-72
2023/04/12 06:55:14;;;;;;;17.67;3.95;;;;;;;8.75;91.02;99993.44;6103696;19;20007;-71
2023/04/12 06:57:20;;;;;;;16.42;4.10;;;;;;;8.78;90.63;99980.19;6098005;19;20014;-71
2023/04/12 06:59:28;;;;;;;22.45;3.83;;;;;;;8.79;89.76;99981.88;6102762;19;20094;-72
2023/04/12 07:01:33;;;;;;;25.05;4.55;;;;;;;8.85;90.41;99986.84;6103339;19;20323;-72
2023/04/12 07:03:38;;;;;;;30.98;4.70;;;;;;;8.88;89.57;99986.69;6098919;19;20023;-72
2023/04/12 07:05:43;;;;;;;22.20;4.65;;;;;;;8.92;88.19;99988.22;6099311;19;20047;-71
2023/04/12 07:07:48;;;;;;;18.80;3.88;;;;;;;9.04;89.08;99992.06;6096852;19;20003;-73
2023/04/12 07:09:53;;;;;;;19.38;3.53;;;;;;;9.11;88.65;99987.34;6102629;19;20052;-73
2023/04/12 07:11:59;;;;;;;17.00;4.05;;;;;;;9.20;88.08;99977.28;6101285;19;20013;-73
2023/04/12 07:14:04;;;;;;;22.08;7.00;;;;;;;9.14;86.66;99972.34;6105246;19;20074;-73
2023/04/12 07:16:12;;;;;;;17.88;3.67;;;;;;;9.08;86.40;99972.63;6105208;19;20483;-73
2023/04/12 07:18:17;;;;;;;16.67;3.72;;;;;;;9.02;86.03;99978.16;6103378;19;20356;-74
2023/04/12 07:20:23;;;;;;;17.38;3.55;;;;;;;9.01;86.21;99977.31;6103716;19;20006;-74
2023/04/12 07:22:28;;;;;;;16.17;3.30;;;;;;;9.12;86.15;99962.84;6102898;19;20046;-73
2023/04/12 07:24:33;;;;;;;21.58;4.13;;;;;;;9.65;84.69;99957.56;6104040;19;20346;-73
2023/04/12 07:26:39;;;;;;;19.00;4.07;;;;;;;10.08;83.26;99955.38;6101557;19;20007;-73
2023/04/12 07:28:44;;;;;;;11.75;3.55;;;;;;;10.47;82.67;99951.53;6102926;19;20482;-72
2023/04/12 07:30:51;;;;;;;11.98;3.25;;;;;;;10.70;80.79;99942.41;6103110;19;20006;-73
2023/04/12 07:32:59;;;;;;;18.38;3.30;;;;;;;10.92;80.19;99949.94;6104734;19;20002;-73
2023/04/12 07:35:22;;;;;;;13.63;3.00;;;;;;;11.02;79.98;99947.66;6102729;19;20007;-71
2023/04/12 07:37:29;;;;;;;17.60;3.33;;;;;;;10.81;76.89;99939.19;6098953;19;20961;-70
2023/04/12 07:39:39;;;;;;;17.35;3.78;;;;;;;10.86;78.87;99949.44;6103497;19;20077;-71
2023/04/12 07:41:45;;;;;;;18.50;3.50;;;;;;;10.69;77.21;99942.47;6102871;19;20403;-71
2023/04/12 07:43:53;;;;;;;15.50;3.20;;;;;;;10.44;76.76;99935.97;6084869;19;20096;-72
2023/04/12 07:46:03;;;;;;;18.73;3.63;;;;;;;10.28;77.20;99932.47;6103454;19;20010;-72
2023/04/12 07:48:11;;;;;;;19.60;4.05;;;;;;;10.23;77.63;99937.94;6099926;19;20266;-71
2023/04/12 07:50:16;;;;;;;21.75;4.32;;;;;;;10.27;78.09;99938.63;6104156;19;20562;-73
2023/04/12 07:52:22;;;;;;;15.90;3.83;;;;;;;10.36;77.26;99943.41;6101092;19;20071;-71
2023/04/12 07:54:31;;;;;;;10.75;2.90;;;;;;;10.64;77.07;99942.75;6105178;19;20002;-72
2023/04/12 07:56:37;;;;;;;16.55;2.95;;;;;;;11.20;76.34;99941.34;6104844;19;20523;-72
2023/04/12 07:58:42;;;;;;;17.70;3.90;;;;;;;11.29;77.29;99942.59;6100312;19;20172;-72
2023/04/12 08:00:48;;;;;;;15.23;3.80;;;;;;;10.90;76.95;99943.94;6103221;19;20119;-73
2023/04/12 08:02:53;;;;;;;18.80;3.72;;;;;;;10.80;76.58;99945.38;6092970;19;20019;-69
2023/04/12 08:05:01;;;;;;;19.92;3.47;;;;;;;10.81;76.86;99946.22;6101705;19;20050;-70
2023/04/12 08:07:06;;;;;;;18.52;4.28;;;;;;;10.66;76.02;99945.28;6103340;19;20018;-70
2023/04/12 08:09:11;;;;;;;17.27;4.30;;;;;;;10.53;74.24;99947.72;6105897;19;20017;-70
2023/04/12 08:11:17;;;;;;;17.10;3.70;;;;;;;10.71;74.81;99951.13;6104399;19;20014;-69
2023/04/12 08:13:22;;;;;;;16.70;3.65;;;;;;;10.84;75.08;99949.53;6104933;19;20137;-71
2023/04/12 08:15:36;;;;;;;18.50;3.28;;;;;;;10.90;74.70;99949.19;6105777;19;20007;-71
2023/04/12 08:17:42;;;;;;;14.13;3.22;;;;;;;11.19;75.39;99944.91;6103777;19;20102;-71
2023/04/12 08:19:47;;;;;;;13.20;4.13;;;;;;;11.19;73.70;99949.34;6103101;19;20085;-71
2023/04/12 08:21:55;;;;;;;14.15;4.10;;;;;;;11.35;71.17;99951.94;6103734;19;20074;-70
2023/04/12 08:24:00;;;;;;;12.60;4.20;;;;;;;11.24;72.61;99949.88;6103579;19;20042;-71
2023/04/12 08:26:06;;;;;;;14.55;3.35;;;;;;;11.26;73.14;99947.19;6106227;19;20022;-70
2023/04/12 08:28:11;;;;;;;11.35;3.97;;;;;;;11.29;71.81;99947.84;6101663;19;20027;-71
2023/04/12 08:30:18;;;;;;;17.80;4.10;;;;;;;11.01;71.01;99943.34;6104975;19;20006;-70
2023/04/12 08:32:23;;;;;;;30.30;4.05;;;;;;;11.16;72.56;99944.22;6104828;19;20373;-71
2023/04/12 08:34:29;;;;;;;12.13;3.03;;;;;;;11.31;71.60;99943.34;6102748;19;20018;-71
2023/04/12 08:36:34;;;;;;;14.75;3.53;;;;;;;11.60;72.18;99936.38;6102715;19;20046;-74
2023/04/12 08:38:42;;;;;;;15.70;4.03;;;;;;;11.43;69.34;99953.16;6098233;19;20010;-72
2023/04/12 08:40:52;;;;;;;18.30;3.55;;;;;;;11.56;68.00;99947.19;6101633;19;20059;-70
2023/04/12 08:43:04;;;;;;;19.10;3.42;;;;;;;11.83;69.45;99942.91;6101699;19;20034;-70
2023/04/12 08:45:14;;;;;;;19.63;4.30;;;;;;;11.84;68.08;99928.78;6101572;19;20018;-70
2023/04/12 08:47:22;;;;;;;14.02;3.85;;;;;;;12.09;69.51;99943.16;6103112;19;20014;-70
2023/04/12 08:49:30;;;;;;;12.35;3.20;;;;;;;12.05;67.70;99933.75;6104937;19;20007;-71
2023/04/12 08:51:36;;;;;;;12.60;3.53;;;;;;;12.17;70.32;99938.25;6102923;19;20031;-69
2023/04/12 08:53:44;;;;;;;15.30;3.63;;;;;;;12.06;68.48;99938.94;6100773;19;20010;-70
2023/04/12 08:55:51;;;;;;;18.45;3.22;;;;;;;12.21;69.26;99933.63;6104881;19;20657;-70
2023/04/12 08:57:57;;;;;;;17.20;3.60;;;;;;;11.96;69.47;99937.78;6100401;19;20007;-71
2023/04/12 09:00:02;;;;;;;19.40;3.13;;;;;;;12.18;69.95;99939.09;6104451;19;20046;-71
2023/04/12 09:02:07;;;;;;;15.70;3.42;;;;;;;12.13;70.48;99939.38;6103334;19;20003;-71
2023/04/12 09:04:12;;;;;;;13.40;3.25;;;;;;;11.92;69.01;99930.16;6102912;19;20011;-71
2023/04/12 09:06:18;;;;;;;14.55;2.58;;;;;;;12.01;70.00;99934.88;6104904;19;20487;-72
2023/04/12 09:08:23;;;;;;;16.38;4.10;;;;;;;11.87;66.57;99930.44;6105165;19;20027;-73
2023/04/12 09:10:36;;;;;;;19.75;4.18;;;;;;;12.01;67.95;99932.25;6104570;19;20082;-72
2023/04/12 09:12:48;;;;;;;18.70;3.30;;;;;;;12.20;65.91;99948.59;6103017;19;20014;-73
2023/04/12 09:15:17;;;;;;;17.30;3.50;;;;;;;11.89;65.53;99947.00;6103059;19;20537;-72
2023/04/12 09:17:32;;;;;;;17.80;4.50;;;;;;;12.22;66.78;99952.00;6102910;19;20018;-72
2023/04/12 09:19:38;;;;;;;14.80;3.75;;;;;;;12.34;64.78;99946.91;6103532;19;20353;-71
2023/04/12 09:21:57;;;;;;;11.52;2.90;;;;;;;12.70;63.70;99943.75;6100925;19;20021;-72
2023/04/12 09:24:11;;;;;;;19.15;3.85;;;;;;;12.29;62.82;99942.75;6104118;19;20011;-71
2023/04/12 09:26:31;;;;;;;18.30;3.95;;;;;;;12.34;61.88;99939.00;6103193;19;20037;-72
2023/04/12 09:28:36;;;;;;;12.95;3.03;;;;;;;12.39;63.06;99942.19;6102713;19;20002;-72
2023/04/12 09:30:43;;;;;;;13.98;2.85;;;;;;;12.41;64.31;99935.06;6102386;19;20006;-71
2023/04/12 09:32:53;;;;;;;20.80;4.55;;;;;;;12.25;64.28;99930.72;6103600;19;20018;-71
2023/04/12 09:35:01;;;;;;;14.60;3.67;;;;;;;12.37;64.97;99930.91;6103812;19;20380;-73
2023/04/12 09:37:17;;;;;;;17.77;3.83;;;;;;;12.19;63.48;99933.75;6097385;19;20007;-73
2023/04/12 09:39:31;;;;;;;21.50;3.85;;;;;;;12.11;63.97;99932.50;6103421;19;20127;-72
2023/04/12 09:41:40;;;;;;;18.30;4.72;;;;;;;12.14;63.49;99934.94;6101020;19;20006;-72
2023/04/12 09:43:45;;;;;;;15.70;4.60;;;;;;;12.24;62.79;99939.59;6102208;19;20011;-72
2023/04/12 09:45:51;;;;;;;19.02;3.72;;;;;;;12.24;60.94;99934.31;6104248;19;20022;-72
2023/04/12 09:47:56;;;;;;;13.85;3.30;;;;;;;12.26;60.00;99931.56;6101797;19;20025;-72
2023/04/12 09:50:03;;;;;;;18.20;3.15;;;;;;;12.53;60.71;99939.53;6101531;19;20507;-72
2023/04/12 09:52:09;;;;;;;14.38;3.22;;;;;;;13.14;60.17;99935.59;6097173;19;20003;-72
2023/04/12 09:54:15;;;;;;;14.38;3.78;;;;;;;13.74;59.07;99930.78;6106056;19;20010;-72
2023/04/12 09:56:24;;;;;;;15.93;2.90;;;;;;;13.34;54.09;99941.38;6107930;19;20014;-73
2023/04/12 09:58:35;;;;;;;19.23;3.67;;;;;;;13.76;53.80;99931.53;6109248;19;20010;-73